Date,TemperatureHighF,TemperatureAvgF,TemperatureLowF,DewpointHighF,DewpointAvgF,DewpointLowF,HumidityHigh,HumidityAvg,HumidityLow,PressureMaxIn,PressureMinIn,WindSpeedMaxMPH,WindSpeedAvgMPH,GustSpeedMaxMPH,PrecipitationSumIn
2013-1-1,81.3,55.0,36.3,81.0,53.6,24.5,99,97,13,30.31,30.05,11,5,0,0.00
2013-1-2,39.9,34.6,27.9,39.4,34.1,27.4,98,98,98,30.37,30.28,8,3,0,0.00
2013-1-3,49.8,38.6,27.5,49.6,37.3,-6.0,99,97,11,30.49,30.35,8,2,0,0.00
2013-1-4,50.5,42.8,36.7,50.3,38.8,-7.0,99,90,11,30.56,30.39,4,0,0,0.00
2013-1-5,55.0,44.8,34.9,52.6,40.6,-33.5,99,91,2,30.39,30.24,9,2,0,0.00
2013-1-6,57.0,44.0,28.2,56.7,43.1,21.2,99,97,37,30.42,30.34,11,2,0,0.00
2013-1-7,57.0,40.0,22.6,56.7,39.0,5.1,99,97,15,30.36,30.12,4,0,0,0.00
2013-1-8,77.2,53.9,43.3,76.6,53.3,42.8,99,98,98,30.13,29.99,7,2,0,1.58
2013-1-9,88.2,84.0,77.4,87.5,82.5,42.4,99,96,22,30.16,29.98,10,2,0,2.67
2013-1-10,90.1,64.8,51.4,89.5,62.1,-19.9,98,95,4,30.03,29.96,3,0,0,0.04
2013-1-11,83.7,62.0,52.3,83.0,59.7,-6.4,99,95,5,29.98,29.78,9,1,0,0.00
2013-1-12,100.4,77.6,37.8,99.7,76.9,37.2,98,98,62,29.95,29.69,15,3,0,0.99
2013-1-13,41.9,35.1,29.3,41.6,33.7,-23.9,99,96,6,30.31,29.95,15,5,0,0.00
2013-1-14,44.1,33.8,26.8,43.8,30.7,-42.7,99,92,3,30.38,30.24,8,1,0,0.00
2013-1-15,37.2,34.4,30.6,36.2,30.5,-47.0,99,91,2,30.27,30.17,10,0,0,0.05
2013-1-16,49.3,35.0,26.2,49.0,31.0,-8.3,99,88,18,30.32,30.19,7,0,0,0.00
2013-1-17,59.7,42.8,29.1,59.4,39.4,-44.1,99,93,2,30.53,30.26,4,0,0,0.00
2013-1-18,63.3,44.7,27.0,63.0,44.1,26.5,99,98,71,30.54,30.30,1,0,0,0.00
2013-1-19,67.6,51.1,40.3,67.3,49.4,24.5,99,95,27,30.29,30.16,9,0,0,0.00
2013-1-20,70.0,50.7,36.3,69.7,49.4,18.1,99,96,19,30.24,30.09,0,0,0,0.00
2013-1-21,57.7,47.5,36.5,57.5,46.9,16.4,99,98,41,30.33,30.14,10,2,0,0.00
2013-1-22,64.4,48.6,34.2,64.1,47.2,1.5,99,97,11,30.33,30.20,6,0,0,0.00
2013-1-23,75.0,62.9,48.2,74.7,61.9,41.3,99,97,41,30.29,30.14,6,0,0,0.00
2013-1-24,84.2,68.9,59.2,83.6,67.2,38.5,99,96,29,30.21,30.05,8,0,0,0.00
2013-1-25,69.1,56.5,46.6,68.5,53.5,-23.5,99,95,2,30.23,30.04,10,1,0,0.00
2013-1-26,65.3,58.2,46.6,64.8,57.3,40.9,99,97,50,30.25,30.13,6,1,0,0.02
2013-1-27,101.3,78.2,66.9,99.9,76.7,34.3,99,97,13,30.12,29.94,13,1,0,0.02
2013-1-28,78.6,76.3,73.2,78.0,74.6,-19.4,99,97,2,30.03,29.85,13,1,0,0.00
2013-1-29,84.4,71.4,55.0,83.8,68.5,0.3,99,95,5,29.86,29.45,20,2,0,0.69
2013-1-30,54.7,45.7,31.8,54.4,44.9,20.0,99,97,33,30.16,29.67,19,6,0,0.00
2013-1-31,69.6,47.5,29.7,69.3,45.7,-36.3,99,96,2,30.36,30.10,15,3,0,0.00
2013-2-1,38.7,34.8,31.8,36.7,26.1,-2.2,99,77,20,30.39,30.36,8,5,0,0.00
2013-2-2,47.7,42.3,38.3,47.1,41.8,37.8,98,98,98,30.34,30.30,0,0,0,0.00
2013-2-3,72.3,52.2,33.8,72.0,51.1,-9.6,99,98,6,30.34,30.01,6,0,0,0.00
2013-2-4,72.1,61.1,50.2,71.5,60.1,26.8,99,97,36,30.00,29.82,14,3,0,0.00
2013-2-5,88.3,73.3,60.8,87.7,71.6,23.2,99,96,13,30.04,29.90,6,1,0,0.00
2013-2-6,90.5,76.3,66.4,89.9,74.9,1.9,99,97,7,30.04,29.89,7,0,0,0.00
2013-2-7,81.5,70.7,55.8,80.9,69.2,41.1,99,96,33,30.10,29.80,16,2,0,0.00
2013-2-8,65.1,52.5,43.0,64.8,50.8,-33.1,99,96,2,30.28,30.11,12,3,0,0.00
2013-2-9,82.0,56.3,46.9,81.4,55.6,46.4,99,98,80,30.16,29.77,11,3,0,0.00
2013-2-10,95.5,65.0,42.3,94.9,64.4,39.5,99,98,56,30.04,29.67,12,2,0,1.30
2013-2-11,55.8,49.9,42.3,55.5,48.5,-18.6,99,97,5,30.18,30.03,10,3,0,0.00
2013-2-12,64.2,59.0,48.0,63.6,58.3,47.5,99,98,72,30.07,29.87,11,4,0,0.41
2013-2-13,58.6,47.2,41.2,58.4,45.7,2.4,99,96,11,30.18,30.03,15,3,0,0.00
2013-2-14,62.4,45.9,36.9,62.1,45.5,36.3,99,98,98,30.11,30.03,0,0,0,0.00
2013-2-15,52.3,45.9,32.2,52.1,43.9,-11.9,99,95,7,30.40,30.12,12,5,0,0.00
2013-2-16,57.6,41.5,27.1,57.3,40.9,26.7,99,98,52,30.44,30.19,9,2,0,0.01
2013-2-17,72.0,54.8,37.0,71.7,54.2,31.6,99,98,49,30.20,29.93,23,6,0,0.01
2013-2-18,78.1,62.6,49.3,77.8,60.6,-9.6,99,96,5,30.14,29.75,22,7,0,0.00
2013-2-19,61.3,50.2,36.1,61.1,48.8,-38.8,99,97,2,30.36,30.14,6,2,0,0.00
2013-2-20,50.0,44.5,41.2,49.7,43.5,5.2,99,97,16,30.25,29.84,8,4,0,0.27
2013-2-21,66.6,52.6,41.5,66.3,52.0,41.0,99,98,74,29.95,29.63,12,3,0,0.14
2013-2-22,49.1,44.6,36.3,48.8,44.1,35.8,99,98,98,30.13,29.95,7,6,0,0.00
2013-2-23,56.8,40.1,28.0,56.6,39.7,27.5,99,98,96,30.11,29.95,14,3,0,0.00
2013-3-5,48.0,41.3,41.9,-48.2,-53.6,-99.9,1,1,1,30.17,30.14,8,-56,0,0.00
2013-3-6,63.0,46.2,32.2,33.0,-42.2,-57.1,98,8,1,30.26,29.98,6,2,0,0.00
2013-3-7,71.4,54.4,36.0,37.3,-30.3,-55.6,98,15,1,30.02,29.86,14,3,0,0.00
2013-3-8,63.5,58.7,52.9,62.9,46.3,-44.6,98,86,1,29.97,29.76,8,2,0,0.00
2013-3-9,88.7,73.8,62.1,88.1,69.6,-39.3,98,94,1,29.76,29.43,14,4,0,0.80
2013-3-10,80.8,54.2,37.9,80.2,52.5,0.9,98,97,5,29.88,29.45,18,5,0,1.00
2013-3-11,58.8,46.0,31.8,44.8,-0.6,-50.0,98,51,1,29.92,29.80,12,3,0,0.00
2013-3-12,65.7,50.8,33.1,48.1,-4.9,-46.7,98,44,1,30.12,29.84,7,0,0,0.00
2013-3-13,71.1,56.4,39.2,49.3,-13.5,-47.3,98,31,1,30.27,30.11,5,1,0,0.00
2013-3-14,79.2,61.1,43.0,62.2,5.6,-48.2,98,45,1,30.15,29.93,17,2,0,0.00
2013-3-15,82.8,68.0,55.9,71.9,15.5,-36.0,98,50,1,29.93,29.67,21,4,0,0.00
2013-3-16,81.9,70.4,60.3,78.0,37.3,-36.7,98,67,1,29.67,29.48,18,5,0,0.00
2013-3-17,75.7,67.7,55.9,75.1,66.3,45.6,98,96,38,29.59,29.48,15,2,0,0.00
2013-3-18,74.7,61.4,52.9,74.1,27.5,-42.1,98,63,1,29.83,29.46,13,2,0,0.00
2013-3-19,68.4,57.2,46.2,58.8,3.3,-43.5,98,47,1,29.97,29.80,7,1,0,0.00
2013-3-20,67.5,55.8,44.2,49.9,-9.3,-46.2,98,34,1,30.15,29.89,11,1,0,0.00
2013-3-21,70.3,59.6,49.8,67.4,-7.4,-46.8,98,32,1,29.89,29.43,14,1,0,0.00
2013-3-22,66.6,55.3,47.7,66.0,49.9,-46.3,98,91,1,29.73,29.43,12,4,0,0.00
2013-3-23,63.9,57.2,53.2,63.3,55.4,-28.4,98,96,2,29.73,29.53,13,3,0,0.24
2013-3-24,59.0,45.8,39.4,58.4,-5.9,-53.0,98,45,1,30.07,29.69,20,9,0,0.01
2013-3-25,55.2,41.9,30.0,38.5,-26.8,-55.8,98,28,1,30.27,30.07,17,5,0,0.02
2013-3-26,59.0,43.1,29.5,42.7,-19.1,-57.5,98,35,1,30.38,30.16,9,1,0,0.00
2013-3-27,71.2,54.9,38.7,56.2,-12.2,-53.0,98,28,1,30.18,29.93,18,2,0,0.01
2013-3-28,71.4,61.7,51.1,70.8,61.1,50.6,98,98,98,30.07,29.93,12,1,0,0.00
2013-3-29,77.9,68.1,62.1,77.3,64.4,-38.7,98,94,1,30.03,29.86,12,2,0,0.00
2013-3-30,78.1,70.2,63.0,77.5,57.8,-37.6,98,86,1,29.93,29.71,11,1,0,1.70
2013-3-31,74.3,68.2,55.8,73.5,44.2,-37.8,98,75,1,29.83,29.63,7,0,0,1.01
2013-4-1,80.8,65.3,50.9,70.5,21.6,-46.4,98,58,1,29.93,29.78,1,0,0,0.00
2013-4-2,72.1,65.0,51.8,71.5,63.7,33.1,98,96,25,29.89,29.76,4,0,0,0.02
2013-4-3,54.3,52.1,49.6,53.7,47.9,-44.9,98,94,1,30.01,29.81,12,3,0,0.82
2013-4-4,51.1,48.6,46.0,50.6,48.1,45.5,98,98,98,30.06,29.97,14,5,0,0.15
2013-4-5,71.6,56.1,42.8,64.5,25.0,-38.5,98,69,1,30.11,29.88,4,0,0,0.00
2013-4-6,76.1,65.2,55.6,74.6,38.8,-37.4,98,74,1,29.87,29.68,16,4,0,0.00
2013-4-7,73.4,67.8,62.2,72.8,65.9,-39.4,98,97,1,29.76,29.57,14,3,0,0.01
2013-4-8,76.5,71.6,65.8,75.9,67.9,-36.4,98,94,1,29.59,29.49,19,6,0,0.05
2013-4-9,83.8,75.6,69.6,83.2,72.5,-34.9,98,95,1,29.57,29.45,17,2,0,0.00
2013-4-10,75.0,51.1,40.5,74.4,50.6,40.0,98,98,98,29.82,29.54,16,7,0,0.78
2013-4-11,62.6,48.1,39.9,53.5,13.2,-46.9,98,62,1,29.84,29.68,11,3,0,0.00
2013-4-12,80.8,58.6,41.7,64.5,15.9,-38.9,98,59,1,29.87,29.71,5,0,0,0.00
2013-4-13,80.6,66.2,49.5,67.6,1.8,-37.5,98,39,1,29.88,29.63,7,0,0,0.00
2013-4-14,81.9,69.8,56.8,81.3,69.1,56.2,98,98,74,29.64,29.39,14,2,0,0.00
2013-4-15,86.9,78.6,71.8,86.3,78.0,71.2,98,98,92,29.59,29.45,17,4,0,0.20
2013-4-16,88.7,79.4,73.4,88.1,72.2,-32.5,98,91,1,29.75,29.59,18,3,0,0.00
2013-4-17,88.0,80.1,75.7,87.4,64.3,-31.4,98,83,1,29.73,29.46,18,4,0,0.00
2013-4-18,86.0,57.3,44.2,85.4,52.7,-44.2,98,92,1,30.02,29.40,20,8,0,0.71
2013-4-19,64.0,49.6,37.0,53.5,5.4,-49.2,98,55,1,30.15,30.01,14,2,0,0.00
2013-4-20,73.2,58.6,43.9,57.5,6.1,-42.3,98,49,1,30.08,29.89,7,0,0,0.02
2013-4-21,72.9,60.7,48.2,67.0,29.7,-36.7,98,69,1,30.10,29.93,9,0,0,0.01
2013-4-22,78.6,66.5,53.1,78.0,65.9,52.5,98,98,97,29.98,29.71,9,0,0,0.05
2013-4-23,71.1,57.8,45.0,70.1,45.2,-45.3,98,85,1,30.05,29.65,17,6,0,0.00
2013-4-24,62.6,50.4,40.3,54.1,17.8,-43.2,98,66,1,30.19,30.05,14,4,0,0.01
2013-4-25,75.2,60.9,45.1,61.6,2.1,-38.9,98,43,1,30.22,30.01,4,0,0,0.00
2013-4-26,77.7,67.8,58.6,77.1,41.2,-39.7,98,69,1,30.05,29.84,7,0,0,0.00
2013-4-27,74.3,69.8,59.5,73.5,42.2,-33.6,98,72,1,29.97,29.83,11,2,0,0.01
2013-4-28,84.0,68.2,53.8,83.4,65.9,-43.5,98,95,1,29.90,29.70,3,0,0,0.01
2013-4-29,87.3,74.9,61.9,83.6,37.0,-38.6,98,63,1,29.76,29.63,11,1,0,0.02
2013-4-30,84.6,73.0,63.9,84.0,67.8,-37.9,98,93,1,29.69,29.58,10,0,0,0.03
2013-5-1,85.6,75.3,67.5,85.0,56.9,-35.8,98,81,1,29.82,29.63,6,0,0,0.00
2013-5-2,69.6,54.1,44.8,69.0,53.5,44.3,98,98,81,30.19,29.79,22,10,0,0.03
2013-5-3,67.8,52.3,40.3,51.3,7.4,-44.2,98,55,1,30.17,29.89,17,6,0,0.00
2013-5-4,73.2,56.2,39.4,57.0,3.4,-43.8,98,49,1,29.88,29.75,14,0,0,0.00
2013-5-5,67.6,55.8,45.9,63.8,33.6,-38.9,98,76,1,30.01,29.88,14,2,0,0.00
2013-5-6,79.0,63.5,47.8,73.9,32.9,-47.5,98,69,1,29.98,29.83,5,0,0,0.00
2013-5-7,86.0,71.0,54.1,74.6,25.5,-31.4,98,56,1,29.93,29.77,8,0,0,0.02
2013-5-8,86.2,73.6,61.9,77.8,36.6,-39.3,98,65,1,29.84,29.70,12,1,0,0.00
2013-5-9,80.2,74.1,68.4,79.6,52.4,-35.5,98,78,1,29.81,29.69,7,0,0,0.23
2013-5-10,85.6,77.8,68.2,85.0,75.5,-5.3,98,95,5,29.89,29.72,3,0,0,0.00
2013-5-11,81.0,70.4,61.7,73.5,23.5,-37.1,98,56,1,30.02,29.86,12,0,0,0.00
2013-5-12,80.4,67.0,53.4,63.3,9.5,-39.9,98,45,1,30.13,29.99,4,0,0,0.00
2013-5-13,88.0,71.4,50.9,65.6,4.9,-33.3,98,39,1,30.09,29.95,11,2,0,0.11
2013-5-14,87.8,76.3,61.9,82.3,26.2,-33.6,98,53,1,30.01,29.83,16,2,0,0.00
2013-5-15,84.4,77.4,72.5,83.8,49.4,-32.5,98,72,1,29.88,29.62,17,5,0,0.66
2013-5-16,83.8,78.8,74.8,81.8,39.4,-31.6,98,60,1,29.68,29.58,8,2,0,0.07
2013-5-17,92.5,85.0,79.2,91.8,76.8,-27.2,98,89,1,29.70,29.62,10,1,0,0.01
2013-5-18,93.0,83.8,76.1,92.3,74.8,-30.6,98,89,1,29.74,29.60,15,2,0,0.00
2013-5-19,90.5,82.0,74.1,89.9,55.2,-32.4,98,73,1,29.67,29.50,21,5,0,0.00
2013-5-20,91.6,82.4,77.2,91.0,70.2,-29.7,98,87,1,29.65,29.48,19,5,0,0.11
2013-5-21,94.6,83.2,66.2,93.9,80.3,-28.2,98,96,1,29.71,29.50,16,2,0,1.65
2013-5-22,96.3,81.8,71.1,95.6,16.1,-34.2,98,38,1,29.80,29.68,6,0,0,0.00
2013-5-23,88.9,80.9,70.3,84.7,-22.6,-34.6,98,6,1,29.92,29.72,8,0,0,0.02
2013-5-24,88.7,81.7,73.0,80.5,-21.1,-33.0,98,7,1,30.05,29.85,10,0,0,1.62
2013-5-25,93.7,84.2,69.3,91.6,15.3,-35.2,98,37,1,30.02,29.88,6,0,0,0.40
2013-5-26,94.1,85.5,80.1,91.4,-9.2,-28.8,98,15,1,29.93,29.77,13,2,0,0.17
2013-5-27,87.1,80.9,76.8,-24.6,-28.3,-30.7,1,1,1,29.84,29.63,14,3,0,0.00
2013-5-28,87.1,80.6,75.6,-24.6,-28.5,-31.5,1,1,1,29.73,29.59,21,4,0,0.11
2013-5-29,85.5,79.5,75.0,-25.6,-29.2,-31.8,1,1,1,29.68,29.54,20,3,0,0.21
2013-5-30,89.6,82.8,78.4,-23.2,-27.2,-29.8,1,1,1,29.63,29.52,21,7,0,0.00
2013-5-31,91.4,84.5,80.4,-22.1,-26.2,-28.6,1,1,1,29.68,29.50,17,7,0,0.00
2013-6-1,87.8,81.2,76.3,-24.2,-28.1,-31.0,1,1,1,29.79,29.54,18,4,0,0.13
2013-6-2,83.3,74.8,66.2,-26.9,-32.0,-37.1,1,1,1,29.92,29.79,14,1,0,0.01
2013-6-3,90.1,76.3,62.6,-22.9,-31.1,-39.3,1,1,1,29.85,29.68,8,1,0,0.05
2013-6-4,92.1,80.9,72.0,-21.7,-28.3,-33.6,1,1,1,29.87,29.63,16,2,0,0.00
2013-6-5,92.7,82.6,74.3,-21.3,-27.3,-32.2,1,1,1,29.79,29.60,8,1,0,0.00
2013-6-6,81.3,76.9,71.8,78.7,-24.1,-33.7,98,6,1,29.78,29.65,16,2,0,1.17
2013-6-7,83.5,74.2,65.3,-26.8,-32.3,-37.6,1,1,1,29.86,29.74,10,1,0,0.00
2013-6-8,89.2,76.0,61.7,-23.4,-31.3,-39.8,1,1,1,29.79,29.64,12,1,0,0.00
2013-6-9,89.8,79.9,72.9,79.6,-18.9,-33.1,98,10,1,29.78,29.69,14,2,0,1.07
2013-6-10,98.4,84.8,71.2,75.1,-11.8,-34.0,98,14,1,29.80,29.73,11,3,0,0.00
2013-6-11,94.1,85.6,77.0,-20.5,-25.5,-30.6,1,1,1,29.87,29.76,14,3,0,0.07
2013-6-12,95.0,85.9,79.5,-20.0,-25.4,-29.1,1,1,1,29.90,29.76,14,4,0,0.00
2013-6-13,97.9,86.8,75.4,-18.3,-24.8,-31.6,1,1,1,29.89,29.73,11,2,0,0.00
2013-6-14,97.7,86.3,76.1,-17.4,-25.0,-31.2,2,1,1,29.83,29.72,9,1,0,0.00
2013-6-15,91.6,83.4,75.6,-22.0,-26.9,-31.5,1,1,1,29.86,29.73,12,1,0,0.00
2013-6-16,96.1,86.3,77.2,79.5,-19.5,-30.2,98,6,1,29.85,29.71,9,2,0,0.00
2013-6-17,91.4,82.8,73.2,73.0,-25.2,-32.9,98,2,1,29.88,29.70,17,1,0,0.49
2013-6-18,84.6,78.9,75.0,77.3,-23.8,-31.8,98,6,1,29.85,29.73,9,2,0,0.01
2013-6-19,92.8,82.7,73.6,82.4,-12.8,-32.7,98,14,1,29.84,29.70,6,0,0,0.00
2013-6-20,96.1,86.9,79.9,80.9,-18.1,-28.9,98,7,1,29.89,29.77,12,3,0,0.00
2013-6-21,95.9,86.5,78.1,-19.5,-25.0,-30.0,1,1,1,29.91,29.80,12,4,0,0.00
2013-6-22,95.5,85.9,77.4,-19.7,-25.4,-30.4,1,1,1,29.89,29.72,12,3,0,0.00
2013-6-23,95.4,86.2,78.3,-19.7,-25.2,-29.9,1,1,1,29.84,29.72,14,4,0,0.00
2013-6-24,95.5,86.8,78.1,-19.7,-24.8,-30.0,1,1,1,29.87,29.73,14,5,0,0.06
2013-6-25,97.9,87.5,79.2,-18.3,-24.4,-29.3,1,1,1,29.83,29.66,19,8,0,0.00
2013-6-26,98.2,87.7,79.0,-18.1,-24.3,-29.4,1,1,1,29.80,29.68,15,6,0,0.00
2013-6-27,99.7,86.9,78.1,-17.2,-24.8,-30.0,1,1,1,29.85,29.70,11,3,0,0.00
2013-6-28,101.8,87.7,77.0,-16.0,-24.3,-30.6,1,1,1,29.78,29.65,10,2,0,0.00
2013-6-29,96.1,85.0,72.7,-19.3,-25.9,-33.2,1,1,1,29.74,29.64,12,3,0,0.01
2013-6-30,90.1,80.4,71.2,-22.9,-28.6,-34.1,1,1,1,29.78,29.65,14,3,0,0.01
2013-7-1,87.1,76.9,67.1,-24.6,-30.7,-36.6,1,1,1,29.87,29.77,12,3,0,0.00
2013-7-2,88.7,77.4,66.4,-23.7,-30.4,-37.0,1,1,1,29.93,29.84,9,2,0,0.00
2013-7-3,91.9,77.9,59.9,-21.8,-30.1,-40.9,1,1,1,29.91,29.78,6,1,0,0.02
2013-7-4,95.0,81.2,68.5,-20.0,-28.2,-35.7,1,1,1,29.86,29.74,9,2,0,0.00
2013-7-5,96.1,84.1,69.8,-19.3,-26.5,-34.9,1,1,1,29.85,29.70,8,2,0,0.02
2013-7-6,97.2,83.3,72.1,-18.7,-26.9,-33.6,1,1,1,29.80,29.70,9,2,0,0.00
2013-7-7,96.8,86.1,73.2,-18.9,-25.3,-32.9,1,1,1,29.85,29.75,8,2,0,0.00
2013-7-8,97.2,85.7,78.4,-18.7,-25.5,-29.8,1,1,1,29.93,29.82,11,3,0,0.02
2013-7-9,99.7,88.7,79.2,-17.2,-23.7,-29.3,1,1,1,29.97,29.81,11,4,0,0.00
2013-7-10,102.6,91.1,81.9,-15.5,-22.3,-27.7,1,1,1,29.90,29.73,10,4,0,0.01
2013-7-11,102.0,86.8,79.3,-15.9,-24.8,-29.3,1,1,1,29.80,29.71,8,1,0,0.00
2013-7-12,100.2,87.3,76.1,80.2,-18.2,-31.2,98,6,1,29.82,29.71,6,2,0,0.00
2013-7-13,99.0,87.5,78.3,-17.6,-24.4,-29.9,1,1,1,29.85,29.71,7,2,0,0.00
2013-7-14,79.7,76.0,72.5,76.9,-11.3,-33.3,98,18,1,29.87,29.74,6,1,0,0.28
2013-7-15,79.9,76.4,73.6,77.5,-13.5,-32.7,98,16,1,29.95,29.80,3,1,0,0.13
2013-7-16,91.0,82.5,76.6,84.1,-16.7,-30.9,98,9,1,30.07,29.92,15,2,0,0.88
2013-7-17,96.3,86.4,76.6,95.6,20.5,-30.9,98,40,1,30.07,29.97,9,2,0,0.22
2013-7-18,96.6,85.2,75.4,80.9,6.7,-31.2,98,30,1,30.03,29.84,9,2,0,0.00
2013-7-19,95.0,82.5,77.4,83.2,-8.2,-30.4,98,16,1,29.89,29.77,7,2,0,0.27
2013-7-20,97.0,84.7,77.9,80.7,10.3,-29.3,98,34,1,29.82,29.69,9,2,0,0.01
2013-7-21,96.4,86.9,79.2,80.5,-12.6,-29.3,98,11,1,29.77,29.67,10,4,0,0.00
2013-7-22,98.2,88.4,81.3,82.9,-19.8,-28.1,98,4,1,29.81,29.69,13,6,0,0.00
2013-7-23,99.5,89.4,81.7,82.5,-14.9,-27.8,98,8,1,29.81,29.64,16,6,0,0.09
2013-7-24,95.4,84.4,76.5,76.6,-21.3,-30.9,98,4,1,29.91,29.69,10,2,0,0.07
2013-7-25,96.8,84.5,73.4,77.8,-23.7,-32.8,98,3,1,29.89,29.81,6,1,0,0.00
2013-7-26,95.7,84.1,79.2,85.4,-12.7,-29.3,98,13,1,29.86,29.68,14,4,0,0.35
2013-7-27,90.5,81.4,74.5,75.6,-26.5,-32.1,97,2,1,29.86,29.74,9,3,0,0.00
2013-7-28,93.9,82.0,70.0,74.8,-18.7,-34.8,98,9,1,29.84,29.71,10,2,0,0.00
2013-7-29,95.9,86.6,80.6,82.9,-19.9,-28.5,98,5,1,29.84,29.74,12,5,0,0.07
2013-7-30,97.7,88.0,80.1,-18.4,-24.1,-28.8,1,1,1,29.93,29.78,14,6,0,0.00
2013-7-31,102.2,89.6,78.8,73.9,-22.0,-29.6,75,2,1,29.89,29.74,10,3,0,0.00
2013-8-1,102.0,89.6,80.4,81.3,-17.7,-28.6,98,4,1,29.84,29.72,6,2,0,0.00
2013-8-2,102.4,90.7,79.5,-15.7,-22.6,-29.1,1,1,1,29.78,29.68,12,4,0,0.02
2013-8-3,100.6,89.6,80.1,-16.7,-23.2,-28.8,1,1,1,29.86,29.75,9,3,0,0.00
2013-8-4,100.2,89.7,78.6,-16.9,-23.1,-29.7,1,1,1,29.91,29.76,9,3,0,0.00
2013-8-5,102.2,90.5,82.0,-15.8,-22.6,-27.7,1,1,1,29.84,29.67,10,4,0,0.06
2013-8-6,103.3,90.8,80.6,-15.1,-22.5,-28.5,1,1,1,29.76,29.62,11,5,0,0.00
2013-8-7,104.5,91.5,81.0,-14.4,-22.1,-28.2,1,1,1,29.73,29.59,12,5,0,0.00
2013-8-8,102.0,90.2,80.1,-15.9,-22.8,-28.8,1,1,1,29.73,29.60,14,4,0,0.00
2013-8-9,102.6,89.2,79.2,-15.5,-23.4,-29.3,1,1,1,29.80,29.66,9,2,0,0.00
2013-8-10,97.9,86.9,77.0,81.9,-21.4,-30.6,98,4,1,29.91,29.79,9,3,0,0.00
2013-8-11,99.1,87.1,75.9,78.7,-20.2,-31.3,98,4,1,29.92,29.79,7,2,0,0.00
2013-8-12,99.7,88.7,78.4,78.9,-19.9,-29.4,98,4,1,29.89,29.75,10,3,0,0.07
2013-8-13,100.6,85.8,78.1,28.7,-24.7,-30.0,15,1,1,29.85,29.71,15,3,0,0.00
2013-8-14,88.9,83.0,78.4,80.2,-18.9,-29.8,98,7,1,29.86,29.77,7,2,0,0.00
2013-8-15,90.3,79.1,71.2,-22.7,-29.4,-34.1,1,1,1,29.93,29.80,6,2,0,0.00
2013-8-16,89.4,78.4,69.6,-2.4,-29.5,-35.1,5,1,1,29.93,29.80,17,2,0,0.05
2013-8-17,90.0,77.6,63.9,65.2,-27.7,-38.5,98,3,1,29.96,29.82,8,2,0,0.00
2013-8-18,92.5,78.7,65.3,68.5,-21.9,-37.5,98,6,1,29.95,29.83,6,1,0,0.00
2013-8-19,95.9,82.7,69.8,-19.5,-27.3,-34.9,1,1,1,29.92,29.77,7,2,0,0.03
2013-8-20,98.2,83.4,68.9,-18.1,-26.9,-35.5,1,1,1,29.90,29.79,7,2,0,0.00
2013-8-21,97.5,84.0,71.4,32.0,-25.8,-34.0,23,1,1,29.94,29.82,10,2,0,0.00
2013-8-22,99.1,86.9,72.9,57.4,-23.8,-33.1,54,2,1,29.94,29.77,8,2,0,0.00
2013-8-23,100.4,87.9,77.9,-16.8,-24.2,-30.1,1,1,1,29.88,29.74,9,2,0,0.00
2013-8-24,100.0,87.1,76.1,-17.1,-24.6,-31.2,1,1,1,29.91,29.81,6,1,0,0.00
2013-8-25,96.8,86.1,72.9,79.0,-20.4,-33.1,98,5,1,30.00,29.89,6,2,0,0.00
2013-8-26,97.3,85.7,75.6,75.7,-17.6,-31.2,98,8,1,30.02,29.87,8,2,0,0.01
2013-8-27,94.8,84.2,77.2,79.5,-13.5,-30.3,98,12,1,29.97,29.85,10,4,0,0.00
2013-8-28,99.0,85.1,72.3,75.5,-19.3,-33.4,98,7,1,29.95,29.82,9,2,0,0.00
2013-8-29,101.5,86.8,73.0,72.4,-23.0,-33.0,98,2,1,29.91,29.78,8,1,0,0.00
2013-8-30,102.9,88.8,75.0,-15.4,-23.7,-31.8,1,1,1,29.84,29.69,10,2,0,0.00
2013-8-31,93.0,80.5,76.6,-21.2,-28.5,-30.9,1,1,1,29.75,29.68,7,1,0,0.00
2013-9-1,96.1,90.0,85.8,-19.3,-22.9,-25.4,1,1,1,29.70,29.60,8,2,0,0.00
2013-9-2,94.6,85.2,78.6,80.9,-19.3,-29.7,98,6,1,29.86,29.67,9,2,0,0.03
2013-9-3,99.3,85.7,73.8,-17.5,-25.5,-32.5,1,1,1,29.83,29.70,6,2,0,0.06
2013-9-4,100.4,86.5,74.5,-16.8,-25.0,-32.1,1,1,1,29.88,29.77,6,2,0,0.00
2013-9-5,100.9,87.0,73.9,-16.5,-24.7,-32.5,1,1,1,29.95,29.82,8,1,0,0.00
2013-9-6,102.7,85.9,72.0,-15.5,-25.4,-33.6,1,1,1,29.92,29.77,7,1,0,0.00
2013-9-7,99.9,87.0,76.5,-17.1,-24.7,-30.9,1,1,1,29.87,29.74,9,2,0,0.00
2013-9-8,98.6,85.0,71.1,78.6,-14.3,-34.2,98,10,1,29.82,29.70,10,3,0,0.00
2013-9-9,96.6,85.1,71.2,76.2,-18.9,-34.1,98,7,1,29.84,29.73,11,4,0,0.02
2013-9-10,95.4,83.7,75.4,77.3,-20.0,-31.6,98,7,1,29.94,29.81,12,3,0,0.00
2013-9-11,97.0,83.3,70.3,72.3,-24.8,-34.6,98,2,1,29.96,29.82,12,2,0,0.00
2013-9-12,99.3,85.2,72.9,72.8,-20.1,-33.1,98,5,1,29.91,29.75,6,1,0,0.03
2013-9-13,96.3,84.9,75.6,75.0,-21.2,-31.3,98,4,1,29.81,29.65,9,2,0,0.00
2013-9-14,92.5,82.8,73.8,-21.4,-27.2,-32.5,1,1,1,29.83,29.71,7,3,0,0.00
2013-9-15,95.4,83.7,72.5,-19.7,-26.7,-33.3,1,1,1,29.87,29.78,7,2,0,0.00
2013-9-16,98.1,84.6,71.2,-18.2,-26.2,-34.1,1,1,1,29.92,29.78,6,1,0,0.02
2013-9-17,93.4,85.1,75.4,-20.9,-25.8,-31.6,1,1,1,29.90,29.76,7,2,0,0.00
2013-9-18,97.3,85.6,76.6,-18.6,-25.5,-30.9,1,1,1,29.85,29.70,10,3,0,0.00
2013-9-19,90.5,82.9,77.9,54.8,-26.2,-30.1,43,1,1,29.83,29.69,9,3,0,0.40
2013-9-20,92.7,83.3,73.4,92.0,33.7,-30.9,98,52,1,29.78,29.68,10,4,0,2.76
2013-9-21,83.8,71.4,60.8,62.3,-33.0,-40.4,70,2,1,29.82,29.69,10,4,0,0.00
2013-9-22,84.2,69.9,56.7,57.1,-29.6,-42.9,98,6,1,29.78,29.63,5,1,0,0.00
2013-9-23,87.6,71.1,56.7,-24.3,-34.2,-42.9,1,1,1,29.71,29.57,8,2,0,0.05
2013-9-24,94.5,77.1,64.2,65.5,-23.9,-38.1,98,7,1,29.75,29.65,9,2,0,0.00
2013-9-25,95.5,74.7,56.1,-19.7,-32.1,-43.2,1,1,1,29.74,29.59,6,1,0,0.00
2013-9-26,95.4,78.4,63.7,-19.7,-29.8,-38.6,1,1,1,29.72,29.62,12,2,0,0.00
2013-9-27,88.3,78.4,66.2,73.2,-16.0,-37.1,98,13,1,29.78,29.67,13,4,0,0.00
2013-9-28,87.8,80.7,74.3,83.4,-5.8,-32.2,98,20,1,29.89,29.71,10,6,0,0.92
2013-9-29,82.6,71.9,63.1,-27.3,-33.7,-39.0,1,1,1,29.89,29.74,8,4,0,0.00
2013-9-30,87.6,73.2,59.7,-24.3,-32.9,-41.0,1,1,1,29.75,29.62,8,1,0,0.02
2013-10-1,90.1,79.6,68.9,80.5,-8.8,-35.2,98,19,1,29.79,29.67,10,2,0,0.00
2013-10-2,89.8,81.9,77.2,78.9,-25.6,-30.5,98,3,1,29.83,29.68,11,4,0,0.00
2013-10-3,91.4,83.0,77.0,80.7,-16.4,-30.6,98,11,1,29.77,29.63,11,5,0,0.00
2013-10-4,91.0,83.2,78.3,82.9,-8.4,-29.0,98,16,1,29.76,29.66,12,5,0,0.00
2013-10-5,80.1,67.1,53.6,79.1,1.6,-44.7,98,35,1,29.97,29.70,18,5,0,0.48
2013-10-6,75.0,62.2,50.2,58.6,-11.6,-46.8,98,27,1,29.98,29.86,14,3,0,0.02
2013-10-7,82.0,62.4,46.2,53.5,-27.9,-48.9,98,12,1,30.01,29.89,8,1,0,0.01
2013-10-8,82.0,64.7,48.4,63.8,-6.5,-47.9,98,31,1,29.97,29.83,9,1,0,0.00
2013-10-9,84.0,68.0,53.6,65.6,2.5,-44.7,98,37,1,29.93,29.82,11,2,0,0.00
2013-10-10,84.2,71.4,59.9,70.5,-8.1,-40.9,98,24,1,29.91,29.72,9,3,0,0.00
2013-10-11,85.5,77.6,69.8,80.9,16.9,-34.7,98,39,1,29.78,29.65,15,6,0,0.00
2013-10-12,92.5,80.7,73.8,83.4,-5.8,-32.5,98,19,1,29.91,29.70,12,4,0,0.31
2013-10-13,83.8,77.0,73.4,83.2,34.1,-32.8,98,57,1,30.06,29.89,5,1,0,0.00
2013-10-14,89.4,84.2,75.9,88.8,75.1,-31.2,98,90,1,29.98,29.76,9,3,0,1.01
2013-10-15,89.6,76.6,62.1,89.0,32.9,-39.6,98,53,1,29.90,29.74,11,6,0,0.57
2013-10-16,66.4,61.7,57.0,65.8,-8.1,-42.7,98,29,1,29.96,29.85,10,4,0,0.32
2013-10-17,75.0,59.1,46.8,57.7,-16.9,-48.8,98,23,1,29.99,29.83,7,2,0,0.00
2013-10-18,71.2,61.0,51.6,64.2,2.7,-45.8,98,41,1,29.93,29.74,13,2,0,0.02
2013-10-19,66.6,52.7,43.3,53.4,0.1,-50.1,98,46,1,30.08,29.92,14,5,0,0.00
2013-10-20,72.9,56.8,41.4,49.5,-39.7,-52.2,98,3,1,29.92,29.71,12,4,0,0.00
2013-10-21,75.7,61.1,52.9,69.2,28.4,-43.0,98,67,1,29.95,29.76,11,4,0,0.04
2013-10-22,76.8,59.0,41.5,56.1,-2.8,-52.2,98,38,1,30.02,29.86,6,2,0,0.00
2013-10-23,83.8,63.4,47.7,60.7,-26.0,-48.4,98,12,1,29.98,29.86,5,1,0,0.01
2013-10-24,78.3,63.4,50.4,57.5,-24.2,-46.7,98,14,1,30.13,29.89,8,2,0,0.00
2013-10-25,69.3,57.7,49.6,55.5,-21.9,-46.3,98,21,1,30.28,30.09,6,3,0,0.00
2013-10-26,77.0,63.7,51.8,73.0,22.3,-45.7,98,59,1,30.10,29.86,11,4,0,2.16
2013-10-27,74.3,68.1,63.0,73.7,24.7,-39.0,98,55,1,29.98,29.85,6,2,0,0.00
2013-10-28,79.3,69.5,57.4,78.7,18.6,-40.2,98,49,1,29.96,29.84,8,2,0,0.00
2013-10-29,78.4,76.5,73.8,77.8,-10.8,-32.5,98,19,1,29.93,29.83,11,5,0,0.00
2013-10-30,82.4,77.0,73.6,81.8,38.8,-32.2,98,61,1,29.86,29.63,11,5,0,0.15
2013-10-31,87.8,73.3,51.4,87.2,16.5,-46.1,98,45,1,29.72,29.49,12,4,0,0.00
2013-11-1,76.5,61.2,47.8,62.0,-5.9,-46.9,98,35,1,29.93,29.66,11,3,0,0.00
2013-11-2,67.6,56.3,43.9,52.1,-19.6,-50.7,98,23,1,30.15,29.93,13,4,0,0.00
2013-11-3,68.4,53.9,39.4,57.7,-35.8,-53.5,98,9,1,30.08,29.84,11,3,0,0.00
2013-11-4,71.6,61.8,55.4,71.0,22.9,-43.7,98,60,1,29.95,29.84,9,3,0,0.83
2013-11-5,85.1,78.2,72.0,84.5,71.8,-32.7,98,92,1,29.91,29.77,8,3,0,0.47
2013-11-6,85.3,74.7,55.8,84.7,50.4,-43.4,98,71,1,30.04,29.80,15,7,0,0.52
2013-11-21,51.8,41.3,47.7,-45.8,-56.0,-99.9,1,1,1,30.06,30.00,14,-157,0,0.15
2013-11-22,46.8,43.5,40.6,45.0,-35.9,-52.7,98,15,1,30.30,30.06,28,13,0,0.41
2013-11-23,49.6,43.9,36.1,49.1,-4.6,-55.5,98,48,1,30.40,30.27,28,14,0,0.00
2013-11-24,35.8,34.1,31.3,34.9,-22.1,-58.5,98,38,1,30.45,30.21,23,7,0,0.01
2013-11-25,43.5,40.3,34.7,38.6,-38.6,-56.1,98,15,1,30.21,29.99,30,6,0,0.75
2013-11-26,51.8,43.7,36.3,43.2,-38.2,-55.4,98,14,1,30.23,29.97,30,14,0,0.00
2013-11-27,45.3,34.5,27.0,30.4,-40.8,-61.2,98,18,1,30.31,30.19,20,4,0,0.00
2013-11-28,55.2,37.2,26.8,35.6,-38.8,-61.3,98,17,1,30.31,30.20,10,2,0,0.00
2013-11-29,59.7,42.1,27.5,47.7,-41.4,-60.9,98,10,1,30.37,30.20,9,2,0,0.00
2013-11-30,68.4,52.8,36.5,61.5,-33.8,-55.3,98,11,1,30.20,29.98,14,5,0,0.00
2013-12-1,69.8,62.6,54.0,67.8,11.0,-44.1,98,48,1,30.01,29.73,11,4,0,0.00
2013-12-2,73.0,56.7,44.2,59.1,12.8,-46.7,98,55,1,29.73,29.49,8,1,0,0.00
2013-12-3,76.1,57.2,44.8,59.7,6.9,-47.7,98,50,1,29.51,29.34,10,2,0,0.01
2013-12-4,80.6,62.1,46.2,62.4,-24.9,-49.3,98,15,1,29.71,29.40,10,4,0,0.00
2013-12-5,46.2,36.1,31.5,37.6,-23.4,-57.9,98,35,1,30.01,29.71,25,10,0,0.00
2013-12-6,39.9,31.3,23.5,39.4,-31.4,-63.4,98,23,1,30.37,29.93,20,2,0,0.00
2013-12-7,30.2,25.2,20.3,10.7,-61.3,-65.4,61,2,1,30.39,30.13,6,1,0,0.00
2013-12-8,37.8,34.9,29.5,37.3,-44.8,-59.6,98,12,1,30.11,29.88,8,2,0,0.00
2013-12-9,38.7,33.8,28.0,37.2,-52.1,-60.6,98,6,1,30.26,30.00,10,4,0,0.00
2013-12-10,40.6,27.7,19.4,8.8,-59.3,-66.0,50,2,1,30.38,30.20,16,3,0,0.10
2013-12-11,43.2,32.5,23.5,33.5,-26.6,-63.4,98,33,1,30.45,30.17,14,3,0,0.22
2013-12-12,52.2,37.5,25.9,40.1,-49.7,-61.9,98,5,1,30.47,30.15,17,1,0,0.00
2013-12-13,55.6,45.8,39.9,55.0,-5.7,-53.2,98,44,1,30.15,29.63,23,8,0,0.10
2013-12-14,57.0,45.4,32.2,56.4,-11.7,-57.9,98,38,1,30.17,29.61,42,14,0,0.01
2013-12-15,62.4,43.2,27.3,43.7,-22.3,-60.6,98,30,1,30.20,30.06,12,2,0,0.00
2013-12-16,68.9,49.3,33.6,43.0,-33.8,-57.1,98,15,1,30.08,29.98,12,4,0,0.00
2013-12-17,72.5,48.8,32.4,46.8,-21.0,-57.8,98,28,1,30.13,30.03,5,1,0,0.00
2013-12-18,72.3,51.7,31.8,55.3,-39.4,-58.2,98,7,1,30.10,29.84,31,6,0,0.00
2013-12-19,72.1,63.1,54.7,71.2,-5.4,-44.1,98,32,1,29.84,29.58,42,12,0,0.01
2013-12-20,70.7,59.4,42.8,44.5,-26.4,-50.6,98,16,1,29.69,29.59,34,11,0,0.00
2013-12-21,66.4,53.2,42.4,65.8,47.7,-51.6,98,93,1,29.61,29.36,24,6,0,1.94
2013-12-22,56.3,39.8,30.4,55.7,-4.2,-56.8,98,51,1,30.24,29.62,29,13,0,0.04
2013-12-23,49.8,33.9,24.8,36.4,-7.3,-62.6,98,53,1,30.41,30.23,13,4,0,0.00
2013-12-24,52.5,37.8,24.4,39.6,-31.6,-62.8,98,24,1,30.41,30.11,37,7,0,0.00
2013-12-25,58.3,43.1,31.8,43.9,-11.3,-58.2,98,41,1,30.25,30.11,20,5,0,0.00
2013-12-26,55.0,39.6,30.6,43.2,-32.5,-58.9,98,21,1,30.30,30.17,14,2,0,0.00
2013-12-27,61.0,43.5,30.6,46.8,-28.7,-58.9,98,22,1,30.30,30.17,13,1,0,0.00
2013-12-28,63.0,47.1,32.7,49.3,-26.7,-57.6,98,23,1,30.17,29.80,18,3,0,0.00
2013-12-29,53.8,38.7,32.0,50.8,7.3,-58.1,98,63,1,30.13,29.77,34,11,0,0.00
2013-12-30,45.1,33.1,24.8,29.0,-41.6,-60.3,98,19,1,30.26,30.09,21,7,0,0.00
2013-12-31,55.2,38.0,22.1,33.8,-20.2,-53.6,98,39,1,30.28,30.05,19,4,0,0.00
2014-1-1,67.6,48.1,34.0,58.8,-8.2,-56.8,98,42,1,30.04,29.70,46,13,0,0.00
2014-1-2,42.3,30.6,23.2,32.0,-26.0,-62.3,98,38,1,30.33,30.04,36,13,0,0.00